Погода Мамхегна 2 недели

Республика Адыгея, Россия

16 - 29 июля
  • 16июля
    Сегодня
    +23°
    +39°
    Пасмурно, сплошная облачность
    ВремяПогодаТемператураВлажностьДавлениеВетер, м/сВероятность осадков
    00:00Ясно и безоблачно+26°C32 %748 мм4.7 м/с2 %
    03:00Ясно и безоблачно+22°C39 %748 мм3.4 м/с2 %
    06:00Практически безоблачно+22°C44 %749 мм2.5 м/с2 %
    09:00Ясно и безоблачно+31°C34 %749 мм2.5 м/с2 %
    12:00Практически безоблачно+37°C22 %749 мм4.9 м/с2 %
    15:00Пасмурно, сплошная облачность+39°C17 %747 мм6.3 м/с2 %
    18:00Практически безоблачно+37°C20 %747 мм7.2 м/с2 %
    21:00Ясно и безоблачно+31°C25 %748 мм5.6 м/с2 %
  • 17июля
    Среда
    +24°
    +40°
    Облачно с прояснениями
    ВремяПогодаТемператураВлажностьДавлениеВетер, м/сВероятность осадков
    00:00Небольшая облачность+29°C27 %748 мм4.8 м/с2 %
    03:00Ясно и безоблачно+25°C31 %748 мм4.5 м/с2 %
    06:00Ясно и безоблачно+24°C37 %749 мм3.7 м/с2 %
    09:00Ясно и безоблачно+34°C28 %750 мм3.6 м/с2 %
    12:00Пасмурно, сплошная облачность+38°C19 %750 мм5.3 м/с2 %
    15:00Облачно с прояснениями+39°C18 %749 мм5.3 м/с2 %
    18:00Ясно и безоблачно+37°C20 %749 мм4.7 м/с2 %
    21:00Ясно и безоблачно+31°C21 %749 мм6.5 м/с2 %
  • 18июля
    Четверг
    +22°
    +40°
    Ясно и безоблачно
    ВремяПогодаТемператураВлажностьДавлениеВетер, м/сВероятность осадков
    00:00Ясно и безоблачно+29°C28 %750 мм5.1 м/с2 %
    03:00Ясно и безоблачно+26°C35 %750 мм3.8 м/с2 %
    06:00Ясно и безоблачно+25°C37 %750 мм3.7 м/с2 %
    09:00Ясно и безоблачно+34°C29 %750 мм3.9 м/с2 %
    12:00Ясно и безоблачно+38°C20 %750 мм5.7 м/с2 %
    15:00Ясно и безоблачно+39°C15 %749 мм5.0 м/с2 %
    18:00Ясно и безоблачно+38°C16 %748 мм5.1 м/с2 %
    21:00Ясно и безоблачно+30°C23 %749 мм4.5 м/с2 %
  • 19июля
    Пятница
    +22°
    +40°
    Ясно и безоблачно
    ВремяПогодаТемператураВлажностьДавлениеВетер, м/сВероятность осадков
    00:00Ясно и безоблачно+27°C28 %749 мм3.4 м/с2 %
    03:00Ясно и безоблачно+23°C30 %748 мм2.8 м/с2 %
    06:00Ясно и безоблачно+23°C30 %748 мм3.1 м/с2 %
    09:00Ясно и безоблачно+34°C22 %749 мм1.9 м/с2 %
    12:00Ясно и безоблачно+38°C16 %748 мм4.3 м/с2 %
    15:00Ясно и безоблачно+40°C15 %746 мм3.8 м/с2 %
    18:00Ясно и безоблачно+38°C16 %746 мм5.5 м/с2 %
    21:00Ясно и безоблачно+29°C24 %746 мм2.3 м/с2 %
  • 20июля
    Суббота
    +23°
    +41°
    Ясно и безоблачно
    ВремяПогодаТемператураВлажностьДавлениеВетер, м/сВероятность осадков
    00:00Ясно и безоблачно+25°C34 %745 мм2.4 м/с2 %
    03:00Ясно и безоблачно+23°C37 %745 мм2.2 м/с2 %
    06:00Ясно и безоблачно+24°C43 %746 мм1.0 м/с2 %
    09:00Ясно и безоблачно+33°C29 %746 мм0.3 м/с2 %
    12:00Ясно и безоблачно+38°C19 %746 мм1.5 м/с2 %
    15:00Ясно и безоблачно+41°C17 %745 мм2.8 м/с14 %
    18:00Практически безоблачно+39°C23 %745 мм5.1 м/с10 %
    21:00Ясно и безоблачно+31°C36 %746 мм3.1 м/с4 %
Мы используем cookies
Соглашаюсь